Share

Hamilton, KS (66853)

T-K Weather Station West Hartford, Kansas (KKSHARTF2) Elev 1138 ft | 38.28 °N, 96.05 °W | Change Station

Current weather conditions updated 3 minutes ago

Clear
Clear
29.3 °F
Feels Like 29 °F
N
0.0
Wind Variable Wind from West
Sunrise 6:45 AM
Sunset 8:03 PM
Moon Waning Gibbous

Today is forecast to be Much Warmer than yesterday.

Pressure 30.29 in
Visibility 0.8 miles
Clouds Clear
Windchill 29 °F
Dew Point 29 °F
Humidity 99%
Rainfall 0.00 in
Snow Depth Not available.
UV 0 out of 16
Pollen 10.60 out of 12
Air Quality Not available.
Flu Activity Sporadic
SPECI KEMP 181236Z AUTO 17005KT 3/4SM BR CLR 00/00 A3029 RMK AO2 T00000000

More Conditions Fewer Conditions

Pressure 30.29 in
Visibility 0.8 miles
Clouds Clear
Windchill 29 °F
Dew Point 29 °F
Humidity 99%
Rainfall 0.00 in
Snow Depth Not available.
UV 0 out of 16
Pollen 10.60 out of 12
Air Quality Not available.
Flu Activity Sporadic
SPECI KEMP 181236Z AUTO 17005KT 3/4SM BR CLR 00/00 A3029 RMK AO2 T00000000

More Conditions Fewer Conditions

10-Day Forecast

Almanac

Astronomy

Apr. 18, 2014 Rise Set
Actual Time 6:45 AM CDT 8:03 PM CDT
Civil Twilight 6:17 AM CDT 8:31 PM CDT
Nautical Twilight 5:45 AM CDT 9:03 PM CDT
Astronomical Twilight 5:10 AM CDT 9:38 PM CDT
Moon 11:47 PM CDT 9:10 AM CDT
Length of Visible Light 14h 13m
Length of Day
13h 18m
Tomorrow will be 2m 17s longer.
Waning Gibbous, 88% of the Moon is Illuminated
Today
Waning Gibbous
Apr 22
Last Quarter
Apr 29
New
May 6
First Quarter
May 14
Full

Today's Extremes

State Highs State Lows

Community

  • SUNRISE THROUGH THE TREES.
    SUNRISE THROUGH THE TREES.
  • Dog Wood Blossoms
    Dog Wood Blossoms
  • Morning Light
    Morning Light
  • New Day
    New Day
  • Lake Michigan Sunrise
    Lake Michigan Sunrise

WunderPhotos

Upload Photos

1,702,352 photos uploaded!

Nearby

Snow Depth

Station Depth Elevation
No new snow has been reported.

Coastal Water Temperatures

Place Temperature
No Stations Reporting

Earthquake Activity

City Distance Mag. Time & Date
Perry, Oklahoma 130 miles 2.5 1:42 PM CDT
2014-04-14
Perry, Oklahoma 131 miles 2.6 1:20 PM CDT
2014-04-14
Medford, Oklahoma 118 miles 3.0 5:38 PM CDT
2014-04-12
McCord, Oklahoma 116 miles 2.9 1:33 PM CDT
2014-04-12
Minimum magnitude displayed is 2.5.

Nearby Weather Stations

Station Location Temp. Windchill Dew Point Humidity Wind Precip. Elev Updated Type
T-K Weather Station West Hartford, Kansa, Hartford, KS 29.3 °F 29 °F 29 °F 99% West  at  0.0 mph - / hr 1138 ft 7:43 AM CDT Normal
HADS VERDIGRIS RIVER AT TORONTO KS, Toronto, KS 34 °F 34 °F 34 °F 99% SSW  at  0 mph 0.00 in / hr 960 ft 6:30 AM CDT MADIS
HADS FALL RIVER LAKE NEAR FALL RIVER KS, Fall River, KS 34 °F 34 °F 33 °F 94% NNE  at  3 mph 0.00 in / hr 1020 ft 7:00 AM CDT MADIS

Show More Stations Show Fewer Stations

What do you think?

We're not finished. Please let us know what you like, what you don't like, and what you are still missing.